Latest Coastal Weather Observations for Gold Coast Seaway

IDQ60701

Issued at 11:21 pm EST Tuesday 21 April 2015 (issued every 10 minutes, with the page automatically refreshed every 10 minutes)

About coastal observations | Map of coastal stations | Coastal observations for QLD | Marine services | Other Formats
Station Details ID: 040764 Name: GOLD COAST SEAWAY Lat: -27.94 Lon: 153.43 Height: 2.98 m
Data from the previous 72 hours. | See also: Recent months at Gold Coast Seaway
Date/Time
EST
Temp

°C
Wind Pressure Rain
since 9am
mm
Weather Cloud Vis
km
Sea
Height
m
Swell
Dir
 
Speed
knots
Gust
knots
hPa Trend Height
m
Period
s
Dir
21/11:00pm 14.8 W 12 15 1015.1 - 0.0 - - - - - - -
21/10:30pm 15.0 WNW 14 17 1015.3 - 0.0 - - - - - - -
21/10:00pm 15.1 WNW 10 14 1015.8 - 0.0 - - - - - - -
21/09:30pm 15.2 NW 10 13 1016.1 - 0.0 - - - - - - -
21/09:00pm 15.5 WNW 12 15 1016.0 - 0.0 - - - - - - -
21/08:30pm 15.2 WNW 7 10 1016.1 - 0.0 - - - - - - -
21/08:00pm 15.8 W 9 11 1015.9 - 0.0 - - - - - - -
21/07:30pm 16.0 WNW 8 10 1015.9 - 0.0 - - - - - - -
21/07:00pm 16.4 WNW 10 14 1015.6 - 0.0 - - - - - - -
21/06:30pm 16.8 WNW 13 18 1015.3 - 0.0 - - - - - - -
21/06:00pm 17.1 WNW 11 16 1015.1 - 0.0 - - - - - - -
21/05:30pm 17.6 WNW 15 19 1014.8 - 0.0 - - - - - - -
21/05:00pm 18.5 WNW 20 26 1014.3 - 0.0 - - - - - - -
21/04:30pm 19.4 WNW 19 22 1013.8 - 0.0 - - - - - - -
21/04:00pm 20.2 WNW 19 24 1013.6 - 0.0 - - - - - - -
21/03:30pm 21.5 WNW 19 24 1013.3 - 0.0 - - - - - - -
21/03:00pm 21.9 NW 16 21 1013.4 - 0.0 - - - - - - -
21/02:30pm 22.3 NW 14 18 1013.3 - 0.0 - - - - - - -
21/02:00pm 21.6 WNW 16 20 1013.7 - 0.0 - - - - - - -
21/01:30pm 21.0 WNW 15 18 1013.9 - 0.0 - - - - - - -
21/01:00pm 21.0 NW 15 18 1014.4 - 0.0 - - - - - - -
21/12:30pm 20.9 WNW 17 21 1014.9 - 0.0 - - - - - - -
21/12:00pm 21.1 WNW 16 19 1015.0 - 0.0 - - - - - - -
21/11:30am 21.5 NW 12 15 1015.5 - 0.0 - - - - - - -
21/11:00am 21.2 NW 13 16 1015.7 - 0.0 - - - - - - -
21/10:30am 20.7 NW 9 13 1015.7 - 0.0 - - - - - - -
21/10:00am 20.6 WNW 9 11 1015.9 - 0.0 - - - - - - -
21/09:30am 19.1 W 10 14 1016.3 - 0.0 - - - - - - -
21/09:00am 18.4 WNW 9 12 1016.2 - 2.8 - - - - - - -
21/08:30am 17.5 NW 8 11 1016.4 - 2.8 - - - - - - -
21/08:00am 17.2 NNW 6 8 1016.3 - 2.8 - - - - - - -
21/07:30am 15.6 NNW 7 8 1015.9 - 2.8 - - - - - - -
21/07:00am 15.6 NW 7 8 1015.7 - 2.8 - - - - - - -
21/06:30am 16.0 NNW 7 9 1015.2 - 2.8 - - - - - - -
21/06:00am 16.4 NW 11 14 1015.4 - 2.8 - - - - - - -
21/05:30am 16.1 WNW 11 14 1015.2 - 2.8 - - - - - - -
21/05:00am 16.0 WNW 12 15 1015.2 - 2.8 - - - - - - -
21/04:30am 16.3 WNW 10 12 1014.7 - 2.8 - - - - - - -
21/04:00am 16.4 NW 7 9 1014.5 - 2.8 - - - - - - -
21/03:30am 16.8 NNW 7 10 1014.7 - 2.8 - - - - - - -
21/03:00am 17.1 NW 9 11 1014.4 - 2.8 - - - - - - -
21/02:30am 17.0 W 10 14 1014.3 - 2.8 - - - - - - -
21/02:00am 17.3 WNW 13 14 1014.8 - 2.8 - - - - - - -
21/01:30am 17.3 NW 11 13 1014.9 - 2.8 - - - - - - -
21/01:00am 17.8 NW 8 11 1015.4 - 2.8 - - - - - - -
21/12:30am 18.2 NW 9 12 1015.8 - 2.8 - - - - - - -
 
Date/Time
EST
Temp

°C
Wind Pressure Rain
since 9am
mm
Weather Cloud Vis
km
Sea
Height
m
Swell
Dir
 
Speed
knots
Gust
knots
hPa Trend Height
m
Period
s
Dir
20/11:30pm 18.0 W 10 15 1016.0 - 2.8 - - - - - - -
20/11:00pm 17.9 WNW 11 13 1016.1 - 2.8 - - - - - - -
20/10:30pm 18.8 NW 11 15 1016.7 - 2.8 - - - - - - -
20/10:00pm 19.5 NW 7 10 1016.4 - 2.6 - - - - - - -
20/09:30pm 19.2 NNW 4 5 1017.0 - 2.6 - - - - - - -
20/09:00pm 19.4 NNW 4 6 1016.9 - 2.4 - - - - - - -
20/08:30pm 19.4 NNW 7 9 1017.6 - 2.4 - - - - - - -
20/08:00pm 19.7 NW 8 12 1017.8 - 2.4 - - - - - - -
20/07:30pm 20.0 NNE 7 8 1017.1 - 2.4 - - - - - - -
20/07:00pm 20.2 WNW 8 9 1017.8 - 2.4 - - - - - - -
20/06:30pm 20.3 NNW 7 10 1017.2 - 2.4 - - - - - - -
20/06:00pm 20.0 SSW 2 3 1016.7 - 1.8 Recent precip. - - - - - -
20/05:30pm 20.1 SSW 3 5 1016.6 - 1.8 - - - - - - -
20/05:00pm 20.4 S 4 5 1016.9 - 1.6 - - - - - - -
20/04:30pm 20.5 SSW 5 5 1016.7 - 1.0 - - - - - - -
20/04:00pm 20.9 SW 3 4 1016.3 - 0.4 - - - - - - -
20/03:30pm 20.8 WSW 4 5 1016.0 - 0.4 - - - - - - -
20/03:00pm 21.1 W 3 4 1015.7 - 0.0 - - - - - - -
20/02:30pm 21.2 W 6 7 1016.0 - 0.0 - - - - - - -
20/02:00pm 21.4 WNW 7 9 1016.1 - 0.0 - - - - - - -
20/01:30pm 21.6 NW 4 5 1015.8 - 0.0 - - - - - - -
20/01:00pm 21.4 WNW 7 8 1016.3 - 0.0 - - - - - - -
20/12:30pm 21.9 WNW 6 8 1016.9 - 0.0 - - - - - - -
20/12:00pm 22.0 W 6 8 1017.0 - 0.0 - - - - - - -
20/11:30am 21.8 WSW 2 4 1017.5 - 0.0 - - - - - - -
20/11:00am 21.4 WSW 4 5 1017.8 - 0.0 - - - - - - -
20/10:30am 21.0 SW 5 7 1017.9 - 0.0 - - - - - - -
20/10:00am 21.3 W 5 7 1018.0 - 0.0 - - - - - - -
20/09:30am 20.9 SSW 7 11 1018.2 - 0.0 - - - - - - -
20/09:00am 20.8 S 7 9 1017.6 - 19.4 - - - - - - -
20/08:30am 20.1 S 8 10 1017.9 - 19.4 - - - - - - -
20/08:00am 20.0 S 7 8 1018.0 - 19.4 - - - - - - -
20/07:30am 19.9 S 6 8 1017.9 - 19.4 - - - - - - -
20/07:00am 19.7 S 9 12 1018.1 - 19.4 - - - - - - -
20/06:30am 19.7 S 10 13 1017.8 - 19.4 - - - - - - -
20/06:00am 20.1 S 6 8 1017.7 - 19.0 Recent precip. - - - - - -
20/05:30am 20.3 SSW 4 6 1018.1 - 18.6 - - - - - - -
20/05:00am 20.1 SSW 5 6 1017.8 - 18.2 - - - - - - -
20/04:30am 20.1 WSW 4 5 1017.6 - 18.2 - - - - - - -
20/04:00am 20.2 W 5 6 1017.5 - 18.0 - - - - - - -
20/03:30am 20.1 SW 4 5 1017.3 - 17.8 - - - - - - -
20/03:00am 20.2 WSW 5 7 1017.5 - 15.2 Rain - - - - - -
20/02:30am 20.6 SSW 4 7 1017.4 - 11.8 - - - - - - -
20/02:00am 21.2 SE 12 14 1016.9 - 6.6 - - - - - - -
20/01:30am 21.8 SE 14 16 1016.7 - 3.2 - - - - - - -
20/01:00am 21.6 SE 15 17 1017.0 - 1.2 - - - - - - -
20/12:30am 22.9 SSE 12 15 1017.1 - 0.0 - - - - - - -
20/12:00am 22.4 SSW 4 6 1017.5 - 0.0 - - - - - - -
 
Date/Time
EST
Temp

°C
Wind Pressure Rain
since 9am
mm
Weather Cloud Vis
km
Sea
Height
m
Swell
Dir
 
Speed
knots
Gust
knots
hPa Trend Height
m
Period
s
Dir
19/11:30pm 22.2 SSW 5 6 1017.9 - 0.0 - - - - - - -
19/11:00pm 22.2 SW 5 6 1018.1 - 0.0 - - - - - - -
19/10:30pm 22.4 SW 5 6 1018.1 - 0.0 - - - - - - -
19/10:00pm 22.6 SW 4 5 1018.3 - 0.0 - - - - - - -
19/09:30pm 22.9 SW 5 6 1018.6 - 0.0 - - - - - - -
19/09:00pm 23.1 W 4 5 1018.6 - 0.0 - - - - - - -
19/08:30pm 23.2 W 3 4 1018.4 - 0.0 - - - - - - -
19/08:00pm 23.3 CALM 0 2 1018.4 - 0.0 - - - - - - -
19/07:30pm 23.8 W 4 6 1018.3 - 0.0 - - - - - - -
19/07:00pm 23.9 N 4 5 1017.8 - 0.0 - - - - - - -
19/06:30pm 24.2 N 5 6 1017.3 - 0.0 - - - - - - -
19/06:00pm 24.5 N 6 8 1017.3 - 0.0 - - - - - - -
19/05:30pm 24.9 N 7 10 1016.9 - 0.0 - - - - - - -
19/05:00pm 25.1 NNW 7 9 1017.0 - 0.0 - - - - - - -
19/04:30pm 25.3 N 6 7 1016.3 - 0.0 - - - - - - -
19/04:00pm 25.8 N 10 13 1016.2 - 0.0 - - - - - - -
19/03:30pm 26.1 N 13 15 1016.0 - 0.0 - - - - - - -
19/03:00pm 27.1 NNE 12 14 1016.1 - 0.0 - - - - - - -
19/02:30pm 28.1 NNE 13 15 1016.1 - 0.0 - - - - - - -
19/02:00pm 27.0 NNE 12 14 1016.1 - 0.0 - - - - - - -
19/01:30pm 28.1 NNW 11 15 1016.8 - 0.0 - - - - - - -
19/01:00pm 27.3 NNE 14 16 1016.8 - 0.0 - - - - - - -
19/12:30pm 28.4 NNW 9 13 1017.1 - 0.0 - - - - - - -
19/12:00pm 27.5 NW 10 16 1017.8 - 0.0 - - - - - - -
19/11:30am 27.6 NW 11 14 1018.3 - 0.0 - - - - - - -
19/11:00am 27.0 NNW 9 13 1018.4 - 0.0 - - - - - - -
19/10:30am 26.4 NW 10 14 1018.6 - 0.0 - - - - - - -
19/10:00am 26.1 NW 8 10 1019.1 - 0.0 - - - - - - -
19/09:30am 24.7 WNW 7 9 1019.4 - 0.0 - - - - - - -
19/09:00am 24.0 NW 7 9 1019.4 - 0.0 - - - - - - -
19/08:30am 24.0 NW 7 8 1019.4 - 0.0 - - - - - - -
19/08:00am 23.1 W 7 8 1019.4 - 0.0 - - - - - - -
19/07:30am 22.3 W 7 8 1019.3 - 0.0 - - - - - - -
19/07:00am 21.6 W 7 9 1018.9 - 0.0 - - - - - - -
19/06:30am 20.9 WNW 7 8 1018.5 - 0.0 - - - - - - -
19/06:00am 21.2 NW 7 8 1018.3 - 0.0 - - - - - - -
19/05:30am 21.5 NW 7 8 1018.1 - 0.0 - - - - - - -
19/05:00am 21.4 NW 7 9 1018.2 - 0.0 - - - - - - -
19/04:30am 20.3 WNW 5 6 1018.1 - 0.0 - - - - - - -
19/04:00am 20.5 W 5 6 1018.0 - 0.0 - - - - - - -
19/03:30am 20.6 WSW 5 5 1018.2 - 0.0 - - - - - - -
19/03:00am 20.9 WNW 4 5 1018.3 - 0.0 - - - - - - -
19/02:30am 21.2 W 5 7 1018.5 - 0.0 - - - - - - -
19/02:00am 21.9 W 5 6 1019.0 - 0.0 - - - - - - -
19/01:30am 23.2 N 11 14 1019.4 - 0.0 - - - - - - -
19/01:00am 23.0 N 16 19 1019.6 - 0.0 - - - - - - -
19/12:30am 22.4 N 19 23 1019.9 - 0.0 - - - - - - -
19/12:00am 22.2 N 18 26 1020.2 - 0.0 - - - - - - -
 
Date/Time
EST
Temp

°C
Wind Pressure Rain
since 9am
mm
Weather Cloud Vis
km
Sea
Height
m
Swell
Dir
 
Speed
knots
Gust
knots
hPa Trend Height
m
Period
s
Dir
18/11:56pm 22.0 N 16 26 1020.2 - 0.0 - - - - - - -
18/11:30pm 22.3 N 11 15 1020.2 - 0.0 - - - - - - -

Other Formats:

Comma delimited format used in spreadsheet applications
http://www.bom.gov.au/fwo/IDQ60701/IDQ60701.94580.axf

JavaScript Object Notation format (JSON) in row-major order
http://www.bom.gov.au/fwo/IDQ60701/IDQ60701.94580.json